Time;durP1;ratioP1;P1;durP2;ratioP2;P2;SDS_P1;SDS_P2;PMS_P1;PMS_P2;Temp;Humidity;BMP_temperature;BMP_pressure;BME280_temperature;BME280_humidity;BME280_pressure;Samples;Min_cycle;Max_cycle;Signal;HPM_P1;HPM_P2
2021/12/25 00:00:17;;;;;;;12.07;3.30;;;;;;;-149.78;100.00;50667.03;5116197;28;20040;-61
2021/12/25 00:02:44;;;;;;;18.15;3.40;;;;;;;-149.78;100.00;50676.81;5116057;28;20032;-64
2021/12/25 00:05:11;;;;;;;12.32;4.05;;;;;;;-149.78;100.00;50670.94;5090022;28;20054;-64
2021/12/25 00:07:37;;;;;;;12.10;3.28;;;;;;;-149.78;100.00;50659.19;5095348;28;20024;-63
2021/12/25 00:10:04;;;;;;;13.35;2.45;;;;;;;-149.78;100.00;50651.38;5095581;28;20536;-62
2021/12/25 00:12:31;;;;;;;13.82;2.53;;;;;;;-149.78;100.00;50659.19;5092405;28;20039;-62
2021/12/25 00:14:56;;;;;;;13.75;2.80;;;;;;;-149.78;100.00;50643.56;5089109;28;20127;-61
2021/12/25 00:17:22;;;;;;;10.60;2.60;;;;;;;-149.78;100.00;50672.91;5089941;28;20123;-62
2021/12/25 00:19:48;;;;;;;12.75;2.58;;;;;;;-149.78;100.00;50686.59;5093469;28;20076;-63
2021/12/25 00:22:14;;;;;;;11.05;1.70;;;;;;;-149.78;100.00;50643.56;5092303;28;20047;-62
2021/12/25 00:24:44;;;;;;;5.75;1.83;;;;;;;-149.78;100.00;50655.28;5093427;28;20036;-63
2021/12/25 00:28:03;;;;;;;10.18;1.70;;;;;;;-149.78;100.00;50668.97;5091194;28;20043;-62
2021/12/25 00:34:56;;;;;;;9.90;1.50;;;;;;;-149.78;100.00;50694.41;5093378;28;20036;-61
2021/12/25 00:37:22;;;;;;;7.13;1.65;;;;;;;-149.78;100.00;50663.13;5095010;28;20367;-61
2021/12/25 00:39:48;;;;;;;7.82;1.70;;;;;;;-149.78;100.00;50676.81;5094932;28;20104;-61
2021/12/25 00:42:14;;;;;;;12.52;1.90;;;;;;;-149.78;100.00;50647.47;5094474;28;20040;-61
2021/12/25 00:44:41;;;;;;;15.10;1.70;;;;;;;-149.78;100.00;50647.47;5094810;28;20028;-61
2021/12/25 00:47:07;;;;;;;7.63;1.75;;;;;;;-149.78;100.00;50653.34;5094799;28;20046;-61
2021/12/25 00:49:33;;;;;;;9.82;1.63;;;;;;;-149.78;100.00;50620.09;5095032;28;20028;-61
2021/12/25 00:51:58;;;;;;;4.50;1.33;;;;;;;-149.78;100.00;50674.84;5094806;28;20544;-61
2021/12/25 00:54:24;;;;;;;10.10;1.35;;;;;;;-149.78;100.00;50631.81;5094948;28;20036;-62
2021/12/25 00:56:50;;;;;;;12.02;1.88;;;;;;;-149.78;100.00;50655.28;5094463;28;20113;-61
2021/12/25 00:59:16;;;;;;;6.90;1.40;;;;;;;-149.78;100.00;50655.28;5094392;28;20123;-61
2021/12/25 01:01:41;;;;;;;12.60;1.70;;;;;;;-149.78;100.00;50631.81;5094436;28;20048;-61
2021/12/25 01:04:07;;;;;;;9.70;1.85;;;;;;;-149.78;100.00;50655.28;5102052;28;20054;-61
2021/12/25 01:06:33;;;;;;;15.85;2.47;;;;;;;-149.78;100.00;50686.59;5114510;28;20035;-61
2021/12/25 01:08:59;;;;;;;10.93;2.30;;;;;;;-149.78;100.00;50668.97;5114341;28;20393;-61
2021/12/25 01:11:27;;;;;;;10.65;1.98;;;;;;;-149.78;100.00;50639.66;5096391;28;20039;-61
2021/12/25 01:14:04;;;;;;;14.60;1.80;;;;;;;-149.78;100.00;50665.06;5114007;28;20046;-61
2021/12/25 01:22:38;;;;;;;16.10;2.65;;;;;;;-149.78;100.00;50655.28;5114036;28;20039;-61
2021/12/25 01:30:20;;;;;;;11.52;2.13;;;;;;;-149.78;100.00;50627.91;5114352;28;20046;-61
2021/12/25 01:36:23;;;;;;;9.23;2.13;;;;;;;-149.78;100.00;50661.16;5114346;28;20071;-61
2021/12/25 01:38:49;;;;;;;8.60;1.80;;;;;;;-149.78;100.00;50659.19;5112339;28;20351;-61
2021/12/25 01:41:29;;;;;;;21.42;2.30;;;;;;;-149.78;100.00;50651.38;5114138;28;20028;-61
2021/12/25 01:49:24;;;;;;;8.73;1.85;;;;;;;-149.78;100.00;50670.94;5114052;28;20062;-61
2021/12/25 01:51:50;;;;;;;11.07;1.70;;;;;;;-149.78;100.00;50690.50;5095819;28;20055;-62
2021/12/25 01:54:16;;;;;;;7.55;2.33;;;;;;;-149.78;100.00;50670.94;5114037;28;20031;-61
2021/12/25 01:56:42;;;;;;;10.75;1.48;;;;;;;-149.78;100.00;50659.19;5114119;28;20057;-61
2021/12/25 01:59:07;;;;;;;13.05;1.27;;;;;;;-149.78;100.00;50674.84;5113853;28;20044;-61
2021/12/25 02:01:33;;;;;;;4.95;1.10;;;;;;;-149.78;100.00;50713.97;5113987;28;20039;-61
2021/12/25 02:03:58;;;;;;;13.23;1.38;;;;;;;-149.78;100.00;50674.84;5113670;28;20047;-61
2021/12/25 02:06:24;;;;;;;6.22;1.20;;;;;;;-149.78;100.00;50668.97;5114018;28;20032;-61
2021/12/25 02:08:50;;;;;;;16.35;1.38;;;;;;;-149.78;100.00;50678.75;5113922;28;20032;-64
2021/12/25 02:11:16;;;;;;;6.45;1.25;;;;;;;-149.78;100.00;50663.13;5113903;28;20023;-64
2021/12/25 02:13:43;;;;;;;11.65;1.20;;;;;;;-149.78;100.00;50678.75;5113869;28;20035;-64
2021/12/25 02:16:14;;;;;;;5.85;1.20;;;;;;;-149.78;100.00;50680.72;5095508;28;20138;-65
2021/12/25 02:21:33;;;;;;;12.95;1.90;;;;;;;-149.78;100.00;50663.13;5113865;28;20470;-64
2021/12/25 02:23:59;;;;;;;10.48;1.30;;;;;;;-149.78;100.00;50694.41;5113759;28;20423;-64
2021/12/25 02:26:26;;;;;;;9.80;0.93;;;;;;;-149.78;100.00;50682.66;5113654;28;20031;-64
2021/12/25 02:28:52;;;;;;;7.15;1.13;;;;;;;-149.78;100.00;50667.03;5094402;28;20393;-64
2021/12/25 02:31:18;;;;;;;5.68;1.23;;;;;;;-149.78;100.00;50655.28;5117887;28;20050;-61
2021/12/25 02:33:44;;;;;;;4.60;0.93;;;;;;;-149.78;100.00;50663.13;5117129;28;20032;-61
2021/12/25 02:36:12;;;;;;;11.05;1.13;;;;;;;-149.78;100.00;50655.28;5115718;28;20088;-61
2021/12/25 02:38:39;;;;;;;6.60;1.20;;;;;;;-149.78;100.00;50651.38;5116311;28;20043;-61
2021/12/25 02:41:05;;;;;;;3.30;1.02;;;;;;;-149.78;100.00;50682.66;5117035;28;20347;-61
2021/12/25 02:43:31;;;;;;;8.40;1.67;;;;;;;-149.78;100.00;50651.38;5117763;28;20370;-61
2021/12/25 02:46:03;;;;;;;4.35;1.50;;;;;;;-149.78;100.00;50694.41;5117312;28;20072;-61
2021/12/25 02:48:30;;;;;;;;;;;;;;;-149.78;100.00;50639.66;5117931;28;20039;-61
2021/12/25 02:50:56;;;;;;;12.52;1.33;;;;;;;-149.78;100.00;50702.22;5117553;28;19976;-61
2021/12/25 02:53:23;;;;;;;6.78;0.85;;;;;;;-149.78;100.00;50665.06;5117676;28;20470;-64
2021/12/25 02:55:48;;;;;;;7.47;1.17;;;;;;;-149.78;100.00;50710.06;5099010;28;20513;-64
2021/12/25 02:58:15;;;;;;;17.02;1.50;;;;;;;-149.78;100.00;50690.50;5117422;28;20080;-64
2021/12/25 03:00:44;;;;;;;2.88;0.95;;;;;;;-149.78;100.00;50686.59;5117496;28;20050;-64
2021/12/25 03:03:09;;;;;;;4.72;1.02;;;;;;;-149.78;100.00;50663.13;5117037;28;20027;-61
2021/12/25 03:05:36;;;;;;;8.48;1.20;;;;;;;-149.78;100.00;50674.84;5117242;28;20402;-61
2021/12/25 03:08:06;;;;;;;8.05;1.20;;;;;;;-149.78;100.00;50674.84;5117190;28;20092;-61
2021/12/25 03:10:34;;;;;;;8.98;1.13;;;;;;;-149.78;100.00;50663.13;5117401;28;20032;-61
2021/12/25 03:15:46;;;;;;;8.02;1.00;;;;;;;-149.78;100.00;50674.84;5116993;28;20060;-61
2021/12/25 03:18:16;;;;;;;11.73;1.38;;;;;;;-149.78;100.00;50665.06;5117110;28;20039;-61
2021/12/25 03:20:44;;;;;;;9.07;1.40;;;;;;;-149.78;100.00;50629.88;5116494;28;20052;-61
2021/12/25 03:23:16;;;;;;;10.70;1.20;;;;;;;-149.78;100.00;50663.13;5116533;28;20039;-61
2021/12/25 03:25:43;;;;;;;9.30;1.13;;;;;;;-149.78;100.00;50702.22;5116829;28;20072;-61
2021/12/25 03:28:09;;;;;;;10.13;1.40;;;;;;;-149.78;100.00;50667.03;5116692;28;20047;-61
2021/12/25 03:30:38;;;;;;;3.63;0.98;;;;;;;-149.78;100.00;50643.56;5116980;28;20391;-61
2021/12/25 03:33:10;;;;;;;5.75;1.20;;;;;;;-149.78;100.00;50704.19;5116755;28;20027;-61
2021/12/25 03:35:36;;;;;;;8.50;1.20;;;;;;;-149.78;100.00;50682.66;5098492;28;20039;-61
2021/12/25 03:38:03;;;;;;;3.90;0.98;;;;;;;-149.78;100.00;50667.03;5116666;28;20035;-61
2021/12/25 03:40:29;;;;;;;9.40;1.20;;;;;;;-149.78;100.00;50659.19;5116227;28;20031;-61
2021/12/25 03:42:55;;;;;;;10.70;1.30;;;;;;;-149.78;100.00;50678.75;5116352;28;20043;-61
2021/12/25 03:45:20;;;;;;;6.72;1.00;;;;;;;-149.78;100.00;50657.25;5115124;28;20045;-61
2021/12/25 03:47:47;;;;;;;3.22;1.10;;;;;;;-149.78;100.00;50670.94;5116311;28;20046;-61
2021/12/25 03:53:11;;;;;;;8.27;1.00;;;;;;;-149.78;100.00;50682.66;5116283;28;20031;-61
2021/12/25 03:58:27;;;;;;;8.75;1.27;;;;;;;-149.78;100.00;50682.66;5116320;28;20035;-61
2021/12/25 04:00:59;;;;;;;10.43;1.52;;;;;;;-149.78;100.00;50670.94;5114530;28;20043;-61
2021/12/25 04:03:39;;;;;;;20.70;1.67;;;;;;;-149.78;100.00;50670.94;5115730;28;20043;-61
2021/12/25 04:06:09;;;;;;;5.22;1.13;;;;;;;-149.78;100.00;50682.66;5115984;28;20055;-61
2021/12/25 04:08:41;;;;;;;7.40;1.25;;;;;;;-149.78;100.00;50670.94;5116125;28;20424;-61
2021/12/25 04:11:14;;;;;;;12.07;1.63;;;;;;;-149.78;100.00;50651.38;5116041;28;20340;-61
2021/12/25 04:13:40;;;;;;;;;;;;;;;-149.78;100.00;50643.56;5116452;28;20486;-61
2021/12/25 04:16:06;;;;;;;9.38;1.10;;;;;;;-149.78;100.00;50678.75;5116120;28;20394;-61
2021/12/25 04:18:31;;;;;;;10.05;1.40;;;;;;;-149.78;100.00;50682.66;5115942;28;20036;-61
2021/12/25 04:20:58;;;;;;;14.65;1.52;;;;;;;-149.78;100.00;50667.03;5115915;28;20043;-62
2021/12/25 04:23:27;;;;;;;9.18;1.33;;;;;;;-149.78;100.00;50641.59;5115785;28;20386;-61
2021/12/25 04:25:58;;;;;;;11.75;1.38;;;;;;;-149.78;100.00;50647.47;5115825;28;20388;-61
2021/12/25 05:06:00;;;;;;;8.95;2.42;;;;;;;-149.78;100.00;50672.91;5114834;28;20048;-61
2021/12/25 05:08:26;;;;;;;11.43;2.30;;;;;;;-149.78;100.00;50680.72;5114981;28;20070;-61
2021/12/25 05:10:51;;;;;;;11.40;2.63;;;;;;;-149.78;100.00;50706.16;5114812;28;20063;-60
2021/12/25 05:13:17;;;;;;;13.05;2.72;;;;;;;-149.78;100.00;50657.25;5096735;28;20039;-60
2021/12/25 05:15:46;;;;;;;14.90;2.70;;;;;;;-149.78;100.00;50682.66;5097012;28;20031;-60
2021/12/25 05:18:12;;;;;;;18.15;4.00;;;;;;;-149.78;100.00;50653.34;5114779;28;20042;-60
2021/12/25 05:20:38;;;;;;;15.65;3.65;;;;;;;-149.78;100.00;50690.50;5114443;28;20043;-60
2021/12/25 05:23:04;;;;;;;16.25;2.63;;;;;;;-149.78;100.00;50670.94;5114443;28;20031;-60
2021/12/25 05:25:32;;;;;;;20.38;3.17;;;;;;;-149.78;100.00;50690.50;5114355;28;20034;-60
2021/12/25 05:27:59;;;;;;;12.48;2.75;;;;;;;-149.78;100.00;50635.72;5114083;28;20207;-61
2021/12/25 05:30:26;;;;;;;16.08;3.00;;;;;;;-149.78;100.00;50704.19;5113974;28;20054;-60
2021/12/25 05:32:52;;;;;;;27.90;3.70;;;;;;;-149.78;100.00;50686.59;5113994;28;20028;-60
2021/12/25 05:35:17;;;;;;;16.10;3.70;;;;;;;-149.78;100.00;50686.59;5113778;28;20486;-60
2021/12/25 05:37:43;;;;;;;18.20;3.22;;;;;;;-149.78;100.00;50647.47;5113926;28;20104;-60
2021/12/25 05:40:12;;;;;;;17.00;2.97;;;;;;;-149.78;100.00;50690.50;5113883;28;20110;-60
2021/12/25 05:42:37;;;;;;;11.20;2.63;;;;;;;-149.78;100.00;50667.03;5113847;28;20390;-60
2021/12/25 05:45:04;;;;;;;19.50;3.00;;;;;;;-149.78;100.00;50674.84;5114142;28;20035;-60
2021/12/25 05:47:29;;;;;;;14.45;2.67;;;;;;;-149.78;100.00;50680.72;5114729;28;20029;-60
2021/12/25 05:49:56;;;;;;;17.55;3.03;;;;;;;-149.78;100.00;50663.13;5114467;28;20394;-61
2021/12/25 05:52:22;;;;;;;11.40;2.53;;;;;;;-149.78;100.00;50663.13;5114436;28;20028;-60
2021/12/25 05:54:48;;;;;;;15.82;2.65;;;;;;;-149.78;100.00;50721.78;5113897;28;20035;-61
2021/12/25 05:57:14;;;;;;;13.30;2.60;;;;;;;-149.78;100.00;50688.53;5114297;28;20035;-60
2021/12/25 05:59:40;;;;;;;13.10;2.67;;;;;;;-149.78;100.00;50678.75;5113947;28;20042;-61
2021/12/25 06:02:06;;;;;;;10.05;2.35;;;;;;;-149.78;100.00;50678.75;5095791;28;20122;-61
2021/12/25 06:04:32;;;;;;;18.58;2.75;;;;;;;-149.78;100.00;50674.84;5106899;28;20051;-60
2021/12/25 06:06:57;;;;;;;13.52;2.55;;;;;;;-149.78;100.00;50674.84;5111327;28;20031;-61
2021/12/25 06:09:23;;;;;;;10.90;3.10;;;;;;;-149.78;100.00;50706.16;5113712;28;20089;-60
2021/12/25 06:11:49;;;;;;;12.57;2.53;;;;;;;-149.78;100.00;50668.97;5113705;28;20493;-61
2021/12/25 06:14:19;;;;;;;18.95;2.40;;;;;;;-149.78;100.00;50688.53;5083644;28;20100;-60
2021/12/25 06:16:46;;;;;;;12.07;2.83;;;;;;;-149.78;100.00;50690.50;5109537;28;20498;-61
2021/12/25 06:19:12;;;;;;;11.43;2.22;;;;;;;-149.78;100.00;50667.03;5112349;28;20088;-60
2021/12/25 06:21:38;;;;;;;10.20;2.60;;;;;;;-149.78;100.00;50655.28;5113054;28;20047;-61
2021/12/25 06:24:05;;;;;;;18.45;2.53;;;;;;;-149.78;100.00;50686.59;5112086;28;20100;-62
2021/12/25 06:26:32;;;;;;;12.77;2.40;;;;;;;-149.78;100.00;50686.59;5110100;28;20035;-61
2021/12/25 06:28:59;;;;;;;15.93;2.70;;;;;;;-149.78;100.00;50688.53;5111909;28;20122;-62
2021/12/25 06:31:25;;;;;;;15.20;3.08;;;;;;;-149.78;100.00;50702.22;5113220;28;20389;-61
2021/12/25 06:33:51;;;;;;;16.80;2.88;;;;;;;-149.78;100.00;50713.97;5113244;28;20031;-59
2021/12/25 06:36:17;;;;;;;15.43;2.53;;;;;;;-149.78;100.00;50655.28;5112416;28;20044;-59
2021/12/25 06:38:44;;;;;;;19.90;2.95;;;;;;;-149.78;100.00;50706.16;5113153;28;20401;-59
2021/12/25 06:41:10;;;;;;;18.92;2.47;;;;;;;-149.78;100.00;50678.75;5113558;28;20050;-59
2021/12/25 06:43:36;;;;;;;12.07;2.38;;;;;;;-149.78;100.00;50667.03;5113405;28;20465;-59
2021/12/25 06:46:03;;;;;;;21.88;2.60;;;;;;;-149.78;100.00;50702.22;5112290;28;20058;-60
2021/12/25 06:48:30;;;;;;;12.07;2.42;;;;;;;-149.78;100.00;50661.16;5112100;28;20080;-60
2021/12/25 06:50:55;;;;;;;20.30;2.22;;;;;;;-149.78;100.00;50719.84;5111971;28;20033;-60
2021/12/25 06:53:21;;;;;;;17.52;3.00;;;;;;;-149.78;100.00;50688.53;5093944;28;20477;-60
2021/12/25 06:55:47;;;;;;;17.33;2.80;;;;;;;-149.78;100.00;50713.97;5111557;28;20039;-61
2021/12/25 06:58:13;;;;;;;12.35;3.10;;;;;;;-149.78;100.00;50706.16;5111859;28;20055;-61
2021/12/25 07:00:39;;;;;;;15.77;3.00;;;;;;;-149.78;100.00;50712.00;5111198;28;20035;-61
2021/12/25 07:03:04;;;;;;;12.50;2.45;;;;;;;-149.78;100.00;50706.16;5110480;28;20082;-64
2021/12/25 07:05:30;;;;;;;19.88;2.38;;;;;;;-149.78;100.00;50710.06;5112143;28;20055;-64
2021/12/25 07:07:56;;;;;;;18.05;2.83;;;;;;;-149.78;100.00;50682.66;5112385;28;20035;-64
2021/12/25 07:10:22;;;;;;;20.38;3.20;;;;;;;-149.78;100.00;50682.66;5113108;28;20042;-64
2021/12/25 07:12:50;;;;;;;16.88;2.33;;;;;;;-149.78;100.00;50686.59;5113199;28;20122;-64
2021/12/25 07:15:16;;;;;;;26.00;2.88;;;;;;;-149.78;100.00;50655.28;5113074;28;20032;-62
2021/12/25 07:17:42;;;;;;;19.25;3.03;;;;;;;-149.78;100.00;50713.97;5116248;28;20031;-64
2021/12/25 07:20:09;;;;;;;12.88;1.90;;;;;;;-149.78;100.00;50688.53;5116414;28;20039;-63
2021/12/25 07:22:35;;;;;;;17.88;3.10;;;;;;;-149.78;100.00;50694.41;5117018;28;20123;-64
2021/12/25 07:25:01;;;;;;;10.25;2.78;;;;;;;-149.78;100.00;50723.75;5115773;28;20046;-65
2021/12/25 07:27:27;;;;;;;8.32;2.25;;;;;;;-149.78;100.00;50727.66;5116816;28;20035;-65
2021/12/25 07:29:53;;;;;;;16.00;1.98;;;;;;;-149.78;100.00;50723.75;5098201;28;20100;-66
2021/12/25 07:32:18;;;;;;;9.73;2.40;;;;;;;-149.78;100.00;50686.59;5116842;28;20042;-66
2021/12/25 07:34:46;;;;;;;11.00;1.85;;;;;;;-149.78;100.00;50706.16;5116942;28;20390;-65
2021/12/25 07:37:13;;;;;;;10.82;2.65;;;;;;;-149.78;100.00;50698.31;5116733;28;20062;-65
2021/12/25 07:39:40;;;;;;;19.42;2.33;;;;;;;-149.78;100.00;50735.47;5116622;28;20063;-65
2021/12/25 07:42:06;;;;;;;15.63;2.97;;;;;;;-149.78;100.00;50682.66;5116598;28;20450;-65
2021/12/25 07:44:32;;;;;;;10.00;1.92;;;;;;;-149.78;100.00;50686.59;5116703;28;20122;-64
2021/12/25 07:46:57;;;;;;;10.32;2.15;;;;;;;-149.78;100.00;50706.16;5116348;28;20031;-64
2021/12/25 07:49:23;;;;;;;14.38;1.35;;;;;;;-149.78;100.00;50678.75;5115242;28;20039;-64
2021/12/25 07:51:49;;;;;;;11.98;2.10;;;;;;;-149.78;100.00;50706.16;5115012;28;20043;-68
2021/12/25 07:54:15;;;;;;;28.17;2.58;;;;;;;-149.78;100.00;50721.78;5115388;28;20080;-66
2021/12/25 07:56:41;;;;;;;13.38;2.50;;;;;;;-149.78;100.00;50682.66;5112513;28;20024;-64
2021/12/25 07:59:07;;;;;;;14.95;2.75;;;;;;;-149.78;100.00;50690.50;5115397;28;20438;-65
2021/12/25 08:01:35;;;;;;;11.90;1.63;;;;;;;-149.78;100.00;50721.78;5114190;28;20393;-65
2021/12/25 08:04:02;;;;;;;14.07;2.33;;;;;;;-149.78;100.00;50700.28;5112574;28;20110;-66
2021/12/25 08:06:28;;;;;;;12.23;1.63;;;;;;;-149.78;100.00;50721.78;5114461;28;20019;-66
2021/12/25 08:08:56;;;;;;;9.38;1.70;;;;;;;-149.78;100.00;50710.06;5114191;28;20370;-65
2021/12/25 08:11:22;;;;;;;16.92;2.38;;;;;;;-149.78;100.00;50700.28;5112367;28;20085;-66
2021/12/25 08:13:48;;;;;;;9.73;2.60;;;;;;;-149.78;100.00;50717.88;5096989;28;20482;-65
2021/12/25 08:16:13;;;;;;;13.05;2.50;;;;;;;-149.78;100.00;50682.66;5114957;28;20032;-66
2021/12/25 08:18:41;;;;;;;9.07;2.17;;;;;;;-149.78;100.00;50690.50;5112380;28;20035;-67
2021/12/25 08:21:08;;;;;;;7.57;1.55;;;;;;;-149.78;100.00;50674.84;5115074;28;20379;-66
2021/12/25 08:23:34;;;;;;;8.85;1.30;;;;;;;-149.78;100.00;50713.97;5095570;28;20046;-66
2021/12/25 08:26:00;;;;;;;10.60;2.22;;;;;;;-149.78;100.00;50682.66;5095063;28;20031;-66
2021/12/25 08:28:26;;;;;;;14.35;2.28;;;;;;;-149.78;100.00;50717.88;5113728;28;20035;-64
2021/12/25 08:30:52;;;;;;;11.63;2.10;;;;;;;-149.78;100.00;50710.06;5090049;28;20039;-66
2021/12/25 08:33:18;;;;;;;6.45;1.42;;;;;;;-149.78;100.00;50698.31;5113632;28;20039;-67
2021/12/25 08:35:45;;;;;;;12.90;1.67;;;;;;;-149.78;100.00;50678.75;5114195;28;20039;-68
2021/12/25 08:38:11;;;;;;;11.75;2.65;;;;;;;-149.78;100.00;50674.84;5115583;28;20538;-72
2021/12/25 08:40:41;;;;;;;9.88;2.17;;;;;;;-149.78;100.00;50706.16;5097411;28;20067;-69
2021/12/25 08:43:07;;;;;;;8.05;1.60;;;;;;;-149.78;100.00;50663.13;5115359;28;20045;-69
2021/12/25 08:46:01;;;;;;;9.77;1.83;;;;;;;-149.78;100.00;50702.22;5115103;28;20035;-68
2021/12/25 08:48:26;;;;;;;5.45;1.20;;;;;;;-149.78;100.00;50706.16;5114347;28;20042;-67
2021/12/25 08:50:55;;;;;;;15.85;2.15;;;;;;;-149.78;100.00;50690.50;5114943;28;20062;-75
2021/12/25 08:53:23;;;;;;;12.98;1.73;;;;;;;-149.78;100.00;50706.16;5114568;28;20053;-71
2021/12/25 08:55:52;;;;;;;7.57;1.60;;;;;;;-149.78;100.00;50717.88;5114083;28;20032;-70
2021/12/25 08:58:18;;;;;;;11.80;1.60;;;;;;;-149.78;100.00;50702.22;5087670;28;20081;-68
2021/12/25 09:00:44;;;;;;;8.45;1.20;;;;;;;-149.78;100.00;50690.50;5114084;28;20428;-68
2021/12/25 09:03:10;;;;;;;17.30;2.28;;;;;;;-149.78;100.00;50733.53;5113883;28;20035;-65
2021/12/25 09:05:36;;;;;;;7.05;1.80;;;;;;;-149.78;100.00;50686.59;5113669;28;20035;-67
2021/12/25 09:08:02;;;;;;;14.00;1.80;;;;;;;-149.78;100.00;50686.59;5113815;28;20071;-66
2021/12/25 09:10:29;;;;;;;16.75;2.05;;;;;;;-149.78;100.00;50710.06;5114004;28;20400;-66
2021/12/25 09:12:58;;;;;;;11.32;1.98;;;;;;;-149.78;100.00;50682.66;5112930;28;20076;-66
2021/12/25 09:15:25;;;;;;;6.07;1.80;;;;;;;-149.78;100.00;50670.94;5095201;28;20035;-66
2021/12/25 09:17:51;;;;;;;8.65;1.33;;;;;;;-149.78;100.00;50698.31;5113439;28;20031;-62
2021/12/25 09:20:19;;;;;;;16.40;1.63;;;;;;;-149.78;100.00;50723.75;5112678;28;20027;-61
2021/12/25 09:22:45;;;;;;;8.50;1.77;;;;;;;-149.78;100.00;50682.66;5111546;28;20034;-63
2021/12/25 09:25:13;;;;;;;11.88;1.50;;;;;;;-149.78;100.00;50670.94;5110168;28;20032;-63
2021/12/25 09:27:39;;;;;;;9.73;1.65;;;;;;;-149.78;100.00;50670.94;5111670;28;20043;-65
2021/12/25 09:30:05;;;;;;;10.25;1.63;;;;;;;-149.78;100.00;50694.41;5112986;28;20080;-63
2021/12/25 09:32:31;;;;;;;11.82;2.10;;;;;;;-149.78;100.00;50657.25;5112512;28;20030;-63
2021/12/25 09:35:00;;;;;;;5.72;1.10;;;;;;;-149.78;100.00;50723.75;5112963;28;20028;-64
2021/12/25 09:37:27;;;;;;;9.32;1.55;;;;;;;-149.78;100.00;50686.59;5112778;28;20402;-64
2021/12/25 09:39:52;;;;;;;9.23;1.40;;;;;;;-149.78;100.00;50733.53;5111725;28;20036;-64
2021/12/25 09:42:20;;;;;;;13.82;1.42;;;;;;;-149.78;100.00;50712.00;5111749;28;20038;-61
2021/12/25 09:44:46;;;;;;;14.73;1.67;;;;;;;-149.78;100.00;50702.22;5108744;28;20091;-62
2021/12/25 09:47:11;;;;;;;12.30;2.80;;;;;;;-149.78;100.00;50667.03;5110528;28;20032;-64
2021/12/25 09:49:37;;;;;;;9.98;1.70;;;;;;;-149.78;100.00;50706.16;5111279;28;20114;-62
2021/12/25 09:52:04;;;;;;;12.82;1.65;;;;;;;-149.78;100.00;50672.91;5111247;28;20106;-62
2021/12/25 09:54:30;;;;;;;12.93;1.63;;;;;;;-149.78;100.00;50665.06;5112180;28;20057;-62
2021/12/25 09:56:58;;;;;;;7.68;1.73;;;;;;;-149.78;100.00;50713.97;5112409;28;20405;-65
2021/12/25 09:59:24;;;;;;;7.60;1.63;;;;;;;-149.78;100.00;50706.16;5092959;28;20032;-63
2021/12/25 10:01:53;;;;;;;10.35;1.30;;;;;;;-149.78;100.00;50678.75;5112525;28;20480;-65
2021/12/25 10:04:44;;;;;;;9.23;2.03;;;;;;;-149.78;100.00;50700.28;5112311;28;20448;-64
2021/12/25 10:07:26;;;;;;;8.45;1.90;;;;;;;-149.78;100.00;50690.50;5111845;28;20056;-63
2021/12/25 10:10:03;;;;;;;9.35;1.35;;;;;;;-149.78;100.00;50713.97;5112423;28;20028;-64
2021/12/25 10:12:38;;;;;;;5.75;1.20;;;;;;;-149.78;100.00;50702.22;5110218;28;20031;-65
2021/12/25 10:15:05;;;;;;;4.10;1.30;;;;;;;-149.78;100.00;50710.06;5112304;28;20514;-68
2021/12/25 10:17:32;;;;;;;11.18;1.60;;;;;;;-149.78;100.00;50682.66;5112432;28;20061;-66
2021/12/25 10:20:11;;;;;;;8.30;1.70;;;;;;;-149.78;100.00;50667.03;5111779;28;20058;-65
2021/12/25 10:22:55;;;;;;;5.45;1.70;;;;;;;-149.78;100.00;50688.53;5111268;28;20035;-65
2021/12/25 10:25:21;;;;;;;11.27;2.65;;;;;;;-149.78;100.00;50678.75;5110776;28;20089;-67
2021/12/25 10:27:56;;;;;;;16.05;3.83;;;;;;;-149.78;100.00;50706.16;5112021;28;20031;-67
2021/12/25 10:30:23;;;;;;;10.90;1.90;;;;;;;-149.78;100.00;50698.31;5093958;28;20079;-66
2021/12/25 10:32:50;;;;;;;15.82;1.77;;;;;;;-149.78;100.00;50713.97;5091906;28;20039;-66
2021/12/25 10:35:22;;;;;;;8.23;1.15;;;;;;;-149.78;100.00;50686.59;5107760;28;20036;-66
2021/12/25 10:37:50;;;;;;;20.95;2.33;;;;;;;-149.78;100.00;50674.84;5105639;28;20039;-65
2021/12/25 10:40:26;;;;;;;4.35;1.63;;;;;;;-149.78;100.00;50713.97;5106740;28;20084;-67
2021/12/25 10:42:59;;;;;;;6.28;1.33;;;;;;;-149.78;100.00;50702.22;5089690;28;20058;-66
2021/12/25 10:45:28;;;;;;;7.00;2.20;;;;;;;-149.78;100.00;50684.63;5107757;28;20042;-67
2021/12/25 10:48:06;;;;;;;12.50;1.67;;;;;;;-149.78;100.00;50686.59;5088997;28;20466;-66
2021/12/25 10:50:43;;;;;;;12.13;1.77;;;;;;;-149.78;100.00;50690.50;5072629;28;20088;-67
2021/12/25 10:53:28;;;;;;;11.40;2.50;;;;;;;-149.78;100.00;50712.00;5085884;28;20038;-67
2021/12/25 10:56:06;;;;;;;7.80;1.60;;;;;;;-149.78;100.00;50690.50;5113140;28;20050;-67
2021/12/25 10:58:32;;;;;;;12.73;1.38;;;;;;;-149.78;100.00;50674.84;5115458;28;20539;-67
2021/12/25 11:00:58;;;;;;;8.25;1.35;;;;;;;-149.78;100.00;50713.97;5117676;28;20039;-66
2021/12/25 11:03:37;;;;;;;9.88;1.60;;;;;;;-149.78;100.00;50698.31;5117176;28;20114;-64
2021/12/25 11:06:09;;;;;;;10.35;1.35;;;;;;;-149.78;100.00;50710.06;5115288;28;20046;-65
2021/12/25 11:08:36;;;;;;;7.47;1.48;;;;;;;-149.78;100.00;50674.84;5115901;28;20031;-65
2021/12/25 11:11:11;;;;;;;14.07;1.90;;;;;;;-149.78;100.00;50706.16;5117002;28;20405;-66
2021/12/25 11:13:41;;;;;;;14.20;1.85;;;;;;;-149.78;100.00;50727.66;5116299;28;20347;-66
2021/12/25 11:16:20;;;;;;;10.13;2.10;;;;;;;-149.78;100.00;50690.50;5115720;28;20034;-67
2021/12/25 11:21:38;;;;;;;4.30;1.10;;;;;;;-149.78;100.00;50686.59;5117038;28;20028;-67
2021/12/25 11:24:05;;;;;;;7.35;2.00;;;;;;;-149.78;100.00;50667.03;5116974;28;20077;-66
2021/12/25 11:26:32;;;;;;;9.13;1.85;;;;;;;-149.78;100.00;50710.06;5097501;28;20028;-66
2021/12/25 11:28:57;;;;;;;10.73;1.50;;;;;;;-149.78;100.00;50721.78;5115987;28;20049;-65
2021/12/25 11:31:23;;;;;;;16.60;1.83;;;;;;;-149.78;100.00;50708.09;5097125;28;20036;-64
2021/12/25 11:33:50;;;;;;;18.00;1.95;;;;;;;-149.78;100.00;50655.28;5116485;28;20072;-70
2021/12/25 11:36:17;;;;;;;13.80;1.50;;;;;;;-149.78;100.00;50751.13;5116552;28;20074;-65
2021/12/25 11:38:43;;;;;;;13.32;2.05;;;;;;;-149.78;100.00;50686.59;5116497;28;20498;-66
2021/12/25 11:41:11;;;;;;;11.57;2.17;;;;;;;-149.78;100.00;50690.50;5116505;28;20028;-66
2021/12/25 11:43:43;;;;;;;16.05;1.95;;;;;;;-149.78;100.00;50672.91;5098123;28;20043;-67
2021/12/25 11:46:09;;;;;;;9.98;1.73;;;;;;;-149.78;100.00;50704.19;5097324;28;20505;-67
2021/12/25 11:48:37;;;;;;;12.57;1.70;;;;;;;-149.78;100.00;50663.13;5098017;28;20038;-67
2021/12/25 11:51:06;;;;;;;7.50;1.83;;;;;;;-149.78;100.00;50737.44;5116460;28;20110;-67
2021/12/25 11:54:26;;;;;;;9.63;1.30;;;;;;;-149.78;100.00;50678.75;5115980;28;20386;-66
2021/12/25 11:56:45;;;;;;;12.73;1.90;;;;;;;-149.78;100.00;50684.63;5112439;28;20394;-64
2021/12/25 11:59:13;;;;;;;8.05;1.55;;;;;;;-149.78;100.00;50706.16;5114897;28;20534;-67
2021/12/25 12:01:41;;;;;;;18.30;1.60;;;;;;;-149.78;100.00;50651.38;5115082;28;20047;-67
2021/12/25 12:04:09;;;;;;;6.50;1.60;;;;;;;-149.78;100.00;50682.66;5115859;28;20031;-66
2021/12/25 12:06:44;;;;;;;9.27;1.90;;;;;;;-149.78;100.00;50704.19;5116171;28;20020;-66
2021/12/25 12:09:14;;;;;;;7.20;2.28;;;;;;;-149.78;100.00;50667.03;5116148;28;20108;-66
2021/12/25 12:11:43;;;;;;;14.00;2.72;;;;;;;-149.78;100.00;50710.06;5116065;28;20474;-66
2021/12/25 12:14:25;;;;;;;13.48;1.90;;;;;;;-149.78;100.00;50686.59;5116218;28;20058;-66
2021/12/25 12:16:59;;;;;;;10.40;1.90;;;;;;;-149.78;100.00;50702.22;5114959;28;20390;-66
2021/12/25 12:19:35;;;;;;;18.48;2.50;;;;;;;-149.78;100.00;50721.78;5115748;28;20524;-66
2021/12/25 12:22:19;;;;;;;9.60;1.95;;;;;;;-149.78;100.00;50678.75;5115221;28;20057;-70
2021/12/25 12:27:52;;;;;;;10.23;1.85;;;;;;;-149.78;100.00;50678.75;5114588;28;20400;-67